»·PEaware :: N127CB KBFL-KCMA

N127CB :: KBFL-KCMA

FLIGHT INFORMATION

Flight Status: Arrived
Operator: Privately registered:
United States
More flights under this callsign
Pilot: Chris B. (15698)
Aircraft: Unknown
(BD5J)
More flights by this aircraft type
Origin: KBFL Meadows
United States
Destination: KCMA Camarillo
United States
More flights between these airports :: More routes between these airports
Route: +EHF V23 GMN V299 FIM V299 ACRAT
File this flight plan on PilotEdge
Remarks:
Altitude:
(Current/Filed)
9,500ft
Speed:
(Current/Filed)
200kts
Departed: 24-Sep-17 03:17 PM
Arrived: 24-Sep-17 03:49 PM
Distance/Time
Traveled:
73nm/0:32
Distance/Time
To Go:
Arrived

Flight Plot

Page will automatically refresh every two minutes.

Flight plan parsing failed; only flown route is shown


Map Options




Map Legend


Flown Route
Filed Route
Departure Airport
Arrival Airport
Navaid (VOR, NDB)
Fix

Horizontal Profiles

Position Reports

Time Latitude Longitude Heading Altitude Ground
Speed
24-Sep-17 15:00 35.435704 -119.052039 180 508ft 0kts
24-Sep-17 15:01 35.435704 -119.052039 180 508ft 0kts
24-Sep-17 15:02 35.435704 -119.052039 180 508ft 0kts
24-Sep-17 15:03 35.435704 -119.052039 180 508ft 0kts
24-Sep-17 15:04 35.435704 -119.052039 180 508ft 0kts
24-Sep-17 15:05 35.435704 -119.052039 180 508ft 0kts
24-Sep-17 15:06 35.435704 -119.052039 180 508ft 0kts
24-Sep-17 15:07 35.435704 -119.052039 180 508ft 0kts
24-Sep-17 15:08 35.435704 -119.052039 180 508ft 0kts
24-Sep-17 15:09 35.435704 -119.052039 180 508ft 0kts
24-Sep-17 15:10 35.435704 -119.052039 180 508ft 0kts
24-Sep-17 15:11 35.435704 -119.052039 180 508ft 0kts
24-Sep-17 15:12 35.435314 -119.053571 239 508ft 11kts
24-Sep-17 15:13 35.432386 -119.052259 135 508ft 21kts
24-Sep-17 15:14 35.428031 -119.047004 135 508ft 16kts
24-Sep-17 15:15 35.425736 -119.044755 230 508ft 0kts
24-Sep-17 15:16 35.425736 -119.044755 230 508ft 0kts
24-Sep-17 15:17 35.425736 -119.044755 230 508ft 0kts
24-Sep-17 15:18 35.425736 -119.044755 230 508ft 0kts
24-Sep-17 15:19 35.425736 -119.044755 230 508ft 0kts
24-Sep-17 15:20 35.425494 -119.045895 283 508ft 11kts
24-Sep-17 15:21 35.440048 -119.062176 318 1252ft 111kts
24-Sep-17 15:22 35.430825 -119.093275 173 2289ft 168kts
24-Sep-17 15:23 35.396204 -119.063083 147 3917ft 141kts
24-Sep-17 15:24 35.359021 -119.048010 173 5591ft 148kts
24-Sep-17 15:25 35.317360 -119.035993 167 7194ft 178kts
24-Sep-17 15:26 35.263851 -119.018906 166 8394ft 201kts
24-Sep-17 15:27 35.209443 -119.000635 166 9473ft 219kts
24-Sep-17 15:28 35.146416 -118.981157 167 9669ft 236kts
24-Sep-17 15:29 35.089702 -118.964842 167 9634ft 228kts
24-Sep-17 15:30 35.042663 -118.953009 171 9443ft 218kts
24-Sep-17 15:31 34.994507 -118.940549 170 9546ft 206kts
24-Sep-17 15:32 34.928148 -118.919227 165 9465ft 217kts
24-Sep-17 15:33 34.881049 -118.903027 166 9628ft 224kts
24-Sep-17 15:34 34.830848 -118.882386 156 9678ft 222kts
24-Sep-17 15:35 34.782922 -118.865032 179 9743ft 220kts
24-Sep-17 15:36 34.721764 -118.863349 181 9787ft 221kts
24-Sep-17 15:37 34.648563 -118.863902 185 9528ft 227kts
24-Sep-17 15:38 34.596510 -118.869019 185 9435ft 227kts
24-Sep-17 15:39 34.534064 -118.877164 195 9333ft 226kts
24-Sep-17 15:40 34.471741 -118.880287 182 9321ft 227kts
24-Sep-17 15:41 34.410543 -118.879839 181 9341ft 235kts
24-Sep-17 15:42 34.343800 -118.882508 203 8353ft 235kts
24-Sep-17 15:43 34.288922 -118.916757 212 6528ft 229kts
24-Sep-17 15:44 34.237457 -118.949449 209 4138ft 189kts
24-Sep-17 15:45 34.197469 -118.963283 159 3815ft 137kts
24-Sep-17 15:46 34.190213 -118.936063 358 3994ft 100kts
24-Sep-17 15:47 34.223973 -118.943798 289 4538ft 145kts
24-Sep-17 15:48 34.234518 -119.002036 295 2477ft 188kts
24-Sep-17 15:49 34.245298 -119.041247 200 1280ft 96kts
24-Sep-17 15:50 34.223843 -119.046044 218 862ft 77kts
24-Sep-17 15:51 34.213623 -119.066490 267 269ft 68kts
24-Sep-17 15:52 34.213739 -119.088857 268 83ft 56kts
24-Sep-17 15:53 34.212918 -119.095607 197 79ft 3kts
24-Sep-17 15:54 34.210633 -119.093959 116 79ft 9kts
24-Sep-17 15:55 34.210592 -119.093756 92 79ft 0kts
24-Sep-17 15:56 34.213814 -119.074582 269 224ft 67kts
24-Sep-17 15:57 34.210592 -119.093756 92 79ft 0kts
24-Sep-17 15:58 34.210592 -119.093756 92 79ft 0kts
24-Sep-17 15:59 34.210592 -119.093756 92 79ft 0kts
24-Sep-17 16:00 34.210592 -119.093756 92 79ft 0kts
24-Sep-17 16:01 34.210592 -119.093756 92 79ft 0kts

Navigation Log

Ident Type
Flight plan parsing failed, navigation log unavailable